createdAt,value
2023-02-01T00:00:53.321Z,85
2023-02-01T00:02:00.860Z,84
2023-02-01T00:03:08.192Z,82
2023-02-01T00:04:15.611Z,83
2023-02-01T00:05:24.221Z,74
2023-02-01T00:06:32.117Z,81
2023-02-01T00:07:40.443Z,82
2023-02-01T00:08:48.461Z,73
2023-02-01T00:10:02.066Z,74
2023-02-01T00:11:11.366Z,74
2023-02-01T00:12:18.464Z,61
2023-02-01T00:13:25.740Z,73
2023-02-01T00:14:36.032Z,64
2023-02-01T00:15:44.089Z,65
2023-02-01T00:16:51.352Z,59
2023-02-01T00:17:58.597Z,58
2023-02-01T00:19:08.207Z,54
2023-02-01T00:20:15.606Z,49
2023-02-01T00:21:23.870Z,50
2023-02-01T00:22:33.309Z,52
2023-02-01T00:23:41.023Z,52
2023-02-01T00:24:48.554Z,41
2023-02-01T00:25:57.671Z,46
2023-02-01T00:27:04.979Z,44
2023-02-01T00:28:11.995Z,48
2023-02-01T00:29:19.323Z,36
2023-02-01T00:30:26.893Z,40
2023-02-01T00:31:35.203Z,34
2023-02-01T00:32:42.423Z,34
2023-02-01T00:33:50.651Z,36
2023-02-01T00:34:57.967Z,35
2023-02-01T00:36:05.969Z,32
2023-02-01T00:37:13.239Z,25
2023-02-01T00:38:21.305Z,30
2023-02-01T00:39:30.650Z,34
2023-02-01T00:40:38.714Z,32
2023-02-01T00:41:47.127Z,25
2023-02-01T00:42:54.669Z,30
2023-02-01T00:44:02.200Z,30
2023-02-01T00:45:09.234Z,30
2023-02-01T00:46:18.449Z,31
2023-02-01T00:47:25.370Z,27
2023-02-01T00:48:32.804Z,27
2023-02-01T00:49:41.723Z,25
2023-02-01T00:50:48.908Z,25
2023-02-01T00:51:56.388Z,33
2023-02-01T00:53:03.658Z,28
2023-02-01T00:54:12.949Z,28
2023-02-01T00:55:21.259Z,28
2023-02-01T00:56:29.560Z,33
2023-02-01T00:57:37.935Z,37
2023-02-01T00:58:46.115Z,36
2023-02-01T00:59:53.334Z,36
2023-02-01T01:01:01.873Z,36
2023-02-01T01:02:10.339Z,37
2023-02-01T01:03:17.564Z,37
2023-02-01T01:04:26.336Z,39
2023-02-01T01:05:33.841Z,34
2023-02-01T01:06:41.014Z,32
2023-02-01T01:07:48.991Z,28
2023-02-01T01:08:56.245Z,27
2023-02-01T01:10:06.197Z,27
2023-02-01T01:11:15.698Z,30
2023-02-01T01:12:23.167Z,25
2023-02-01T01:13:30.201Z,30
2023-02-01T01:14:39.131Z,29
2023-02-01T01:15:47.410Z,25
2023-02-01T01:16:54.805Z,29
2023-02-01T01:18:02.525Z,31
2023-02-01T01:19:10.780Z,27
2023-02-01T01:20:18.267Z,35
2023-02-01T01:21:26.991Z,36
2023-02-01T01:22:35.386Z,38
2023-02-01T01:23:43.120Z,34
2023-02-01T01:24:50.530Z,31
2023-02-01T01:25:57.626Z,31
2023-02-01T01:27:05.168Z,30
2023-02-01T01:28:12.721Z,27
2023-02-01T01:29:22.110Z,35
2023-02-01T01:30:30.368Z,35
2023-02-01T01:31:41.475Z,39
2023-02-01T01:32:50.136Z,33
2023-02-01T01:33:58.228Z,43
2023-02-01T01:35:05.705Z,43
2023-02-01T01:36:13.998Z,44
2023-02-01T01:37:21.400Z,38
2023-02-01T01:38:29.933Z,48
2023-02-01T01:39:37.058Z,47
2023-02-01T01:40:46.390Z,57
2023-02-01T01:41:54.468Z,58
2023-02-01T01:43:02.794Z,56
2023-02-01T01:44:20.046Z,51
2023-02-01T01:45:38.917Z,62
2023-02-01T01:46:46.249Z,57
2023-02-01T01:47:53.706Z,54
2023-02-01T01:49:01.032Z,59
2023-02-01T01:50:15.057Z,69
2023-02-01T01:51:22.326Z,57
2023-02-01T01:52:30.164Z,61
2023-02-01T01:53:37.640Z,55
2023-02-01T01:54:52.681Z,58
2023-02-01T01:55:59.949Z,52
2023-02-01T01:57:11.257Z,60
2023-02-01T01:58:25.314Z,57
2023-02-01T01:59:32.647Z,57
2023-02-01T02:00:39.980Z,57
2023-02-01T02:01:48.425Z,52
2023-02-01T02:02:56.674Z,50
2023-02-01T02:04:04.993Z,57
2023-02-01T02:05:12.569Z,65
2023-02-01T02:06:20.235Z,55
2023-02-01T02:07:32.437Z,60
2023-02-01T02:08:42.072Z,59
2023-02-01T02:09:59.819Z,69
2023-02-01T02:11:00.329Z,62
2023-02-01T02:12:09.619Z,76
2023-02-01T02:13:18.085Z,64
2023-02-01T02:14:26.588Z,67
2023-02-01T02:15:34.746Z,85
2023-02-01T02:16:42.110Z,82
2023-02-01T02:17:58.020Z,78
2023-02-01T02:19:10.799Z,82
2023-02-01T02:20:29.468Z,81
2023-02-01T02:21:40.901Z,87
2023-02-01T02:22:53.425Z,79
2023-02-01T02:24:10.465Z,88
2023-02-01T02:25:26.115Z,80
2023-02-01T02:26:43.761Z,81
2023-02-01T02:28:00.709Z,82
2023-02-01T02:29:18.699Z,85
2023-02-01T02:30:31.874Z,81
2023-02-01T02:31:50.922Z,80
2023-02-01T02:33:05.427Z,87
2023-02-01T02:34:23.855Z,82
2023-02-01T02:35:33.105Z,74
2023-02-01T02:36:51.697Z,94
2023-02-01T02:38:09.533Z,89
2023-02-01T02:39:28.349Z,85
2023-02-01T02:40:38.715Z,77
2023-02-01T02:41:51.001Z,92
2023-02-01T02:43:06.688Z,90
2023-02-01T02:44:28.186Z,87
2023-02-01T02:45:42.341Z,91
2023-02-01T02:46:56.478Z,89
2023-02-01T02:48:10.850Z,82
2023-02-01T02:49:18.325Z,75
2023-02-01T02:50:26.160Z,82
2023-02-01T02:51:42.365Z,81
2023-02-01T02:52:55.121Z,78
2023-02-01T02:54:15.100Z,86
2023-02-01T02:55:28.346Z,74
2023-02-01T02:56:35.404Z,75
2023-02-01T02:57:48.836Z,79
2023-02-01T02:59:01.568Z,75
2023-02-01T03:00:14.953Z,76
2023-02-01T03:01:27.783Z,79
2023-02-01T03:02:40.416Z,74
2023-02-01T03:03:53.779Z,74
2023-02-01T03:05:06.751Z,77
2023-02-01T03:06:14.162Z,78
2023-02-01T03:07:22.581Z,75
2023-02-01T03:08:43.598Z,81
2023-02-01T03:09:51.095Z,77
2023-02-01T03:10:58.262Z,74
2023-02-01T03:12:08.657Z,72
2023-02-01T03:13:21.306Z,80
2023-02-01T03:14:38.943Z,82
2023-02-01T03:15:46.963Z,78
2023-02-01T03:17:00.372Z,77
2023-02-01T03:18:13.563Z,76
2023-02-01T03:19:29.086Z,79
2023-02-01T03:20:45.161Z,80
2023-02-01T03:23:01.689Z,87
2023-02-01T03:24:08.759Z,82
2023-02-01T03:25:22.969Z,81
2023-02-01T03:26:33.665Z,92
2023-02-01T03:27:42.048Z,85
2023-02-01T03:28:57.972Z,82
2023-02-01T03:30:06.505Z,86
2023-02-01T03:31:21.671Z,83
2023-02-01T03:32:29.651Z,84
2023-02-01T03:33:36.910Z,88
2023-02-01T03:34:45.084Z,91
2023-02-01T03:35:53.132Z,92
2023-02-01T03:37:00.204Z,92
2023-02-01T03:38:07.465Z,89
2023-02-01T03:39:18.685Z,95
2023-02-01T03:40:27.024Z,97
2023-02-01T03:41:35.316Z,101
2023-02-01T03:42:42.838Z,102
2023-02-01T03:43:50.391Z,106
2023-02-01T03:44:58.718Z,111
2023-02-01T03:46:08.522Z,121
2023-02-01T03:47:15.912Z,116
2023-02-01T03:48:25.109Z,117
2023-02-01T03:49:33.693Z,123
2023-02-01T03:50:41.878Z,116
2023-02-01T03:51:49.886Z,122
2023-02-01T03:52:57.073Z,123
2023-02-01T03:54:07.498Z,118
2023-02-01T03:55:15.858Z,117
2023-02-01T03:56:24.049Z,111
2023-02-01T03:57:31.360Z,111
2023-02-01T03:58:41.316Z,110
2023-02-01T03:59:48.625Z,110
2023-02-01T04:00:55.972Z,118
2023-02-01T04:02:04.352Z,111
2023-02-01T04:03:11.663Z,104
2023-02-01T04:04:19.772Z,102
2023-02-01T04:05:29.290Z,102
2023-02-01T04:06:38.075Z,101
2023-02-01T04:07:45.758Z,95
2023-02-01T04:08:54.989Z,100
2023-02-01T04:10:02.194Z,95
2023-02-01T04:11:09.561Z,106
2023-02-01T04:12:16.609Z,91
2023-02-01T04:13:23.876Z,95
2023-02-01T04:14:31.425Z,79
2023-02-01T04:15:38.895Z,79
2023-02-01T04:16:47.064Z,117
2023-02-01T04:17:57.421Z,138
2023-02-01T04:19:05.337Z,142
2023-02-01T04:20:14.793Z,142
2023-02-01T04:21:23.991Z,139
2023-02-01T04:22:31.328Z,129
2023-02-01T04:23:39.493Z,123
2023-02-01T04:24:48.988Z,108
2023-02-01T04:25:56.677Z,111
2023-02-01T04:27:04.395Z,108
2023-02-01T04:28:12.100Z,96
2023-02-01T04:29:21.013Z,95
2023-02-01T04:30:30.121Z,94
2023-02-01T04:31:38.867Z,84
2023-02-01T04:32:47.009Z,86
2023-02-01T04:33:55.548Z,77
2023-02-01T04:35:04.422Z,74
2023-02-01T04:36:11.904Z,67
2023-02-01T04:37:19.956Z,67
2023-02-01T04:38:27.263Z,70
2023-02-01T04:39:34.892Z,65
2023-02-01T04:40:43.429Z,55
2023-02-01T04:41:51.859Z,58
2023-02-01T04:42:59.092Z,49
2023-02-01T04:44:06.487Z,40
2023-02-01T04:45:20.994Z,41
2023-02-01T04:46:28.767Z,37
2023-02-01T04:47:35.921Z,36
2023-02-01T04:48:43.571Z,44
2023-02-01T04:49:50.756Z,39
2023-02-01T04:50:58.432Z,31
2023-02-01T04:52:06.368Z,30
2023-02-01T04:53:13.633Z,31
2023-02-01T04:54:21.909Z,30
2023-02-01T04:55:30.364Z,26
2023-02-01T04:56:38.796Z,25
2023-02-01T04:57:47.639Z,29
2023-02-01T04:58:55.776Z,30
2023-02-01T05:00:04.113Z,32
2023-02-01T05:01:14.205Z,41
2023-02-01T05:02:21.492Z,29
2023-02-01T05:03:29.003Z,35
2023-02-01T05:04:41.028Z,33
2023-02-01T05:05:51.061Z,34
2023-02-01T05:06:58.484Z,28
2023-02-01T05:08:05.832Z,25
2023-02-01T05:09:12.809Z,29
2023-02-01T05:10:21.450Z,30
2023-02-01T05:11:29.256Z,30
2023-02-01T05:12:41.888Z,25
2023-02-01T05:13:56.053Z,27
2023-02-01T05:15:03.277Z,26
2023-02-01T05:16:11.665Z,27
2023-02-01T05:17:19.757Z,25
2023-02-01T05:18:29.037Z,27
2023-02-01T05:19:37.052Z,25
2023-02-01T05:20:45.472Z,29
2023-02-01T05:21:52.929Z,26
2023-02-01T05:22:59.890Z,25
2023-02-01T05:24:07.997Z,35
2023-02-01T05:25:15.492Z,38
2023-02-01T05:26:23.888Z,33
2023-02-01T05:27:32.247Z,36
2023-02-01T05:28:39.161Z,40
2023-02-01T05:29:47.712Z,35
2023-02-01T05:30:54.975Z,33
2023-02-01T05:32:19.674Z,42
2023-02-01T05:33:12.811Z,39
2023-02-01T05:34:19.984Z,39
2023-02-01T05:35:28.065Z,40
2023-02-01T05:36:37.124Z,45
2023-02-01T05:37:44.360Z,40
2023-02-01T05:38:52.765Z,52
2023-02-01T05:40:00.388Z,44
2023-02-01T05:41:07.852Z,38
2023-02-01T05:42:15.370Z,37
2023-02-01T05:43:24.681Z,39
2023-02-01T05:44:32.534Z,48
2023-02-01T05:45:39.797Z,46
2023-02-01T05:46:50.105Z,40
2023-02-01T05:47:56.056Z,44
2023-02-01T05:49:04.406Z,48
2023-02-01T05:50:12.260Z,42
2023-02-01T05:51:19.359Z,50
2023-02-01T05:52:26.539Z,55
2023-02-01T05:53:34.400Z,54
2023-02-01T05:54:41.813Z,62
2023-02-01T05:55:49.751Z,78
2023-02-01T05:56:59.604Z,87
2023-02-01T05:58:09.297Z,81
2023-02-01T05:59:21.490Z,71
2023-02-01T06:00:28.577Z,85
2023-02-01T06:01:36.129Z,81
2023-02-01T06:02:46.668Z,83
2023-02-01T06:03:55.031Z,83
2023-02-01T06:05:03.183Z,93
2023-02-01T06:06:11.941Z,81
2023-02-01T06:07:20.569Z,84
2023-02-01T06:08:27.612Z,88
2023-02-01T06:09:35.731Z,86
2023-02-01T06:10:42.827Z,90
2023-02-01T06:11:52.133Z,84
2023-02-01T06:13:00.700Z,86
2023-02-01T06:14:10.112Z,95
2023-02-01T06:15:18.543Z,90
2023-02-01T06:16:25.756Z,98
2023-02-01T06:17:32.750Z,89
2023-02-01T06:18:41.073Z,83
2023-02-01T06:19:49.242Z,97
2023-02-01T06:20:56.586Z,84
2023-02-01T06:22:04.685Z,92
2023-02-01T06:23:13.406Z,102
2023-02-01T06:24:23.223Z,101
2023-02-01T06:25:31.769Z,97
2023-02-01T06:26:41.438Z,98
2023-02-01T06:27:50.158Z,95
2023-02-01T06:28:58.583Z,112
2023-02-01T06:30:06.433Z,101
2023-02-01T06:31:14.698Z,101
2023-02-01T06:32:23.802Z,101
2023-02-01T06:33:32.130Z,106
2023-02-01T06:34:40.294Z,103
2023-02-01T06:35:49.508Z,109
2023-02-01T06:37:02.485Z,105
2023-02-01T06:38:09.890Z,105
2023-02-01T06:39:17.710Z,114
2023-02-01T06:40:27.104Z,109
2023-02-01T06:41:35.726Z,110
2023-02-01T06:42:43.613Z,104
2023-02-01T06:43:58.107Z,104
2023-02-01T06:45:05.175Z,100
2023-02-01T06:46:13.052Z,107
2023-02-01T06:47:21.830Z,101
2023-02-01T06:48:30.296Z,100
2023-02-01T06:49:37.348Z,103
2023-02-01T06:50:44.619Z,103
2023-02-01T06:51:51.531Z,107
2023-02-01T06:52:59.409Z,104
2023-02-01T06:54:09.253Z,97
2023-02-01T06:55:16.866Z,108
2023-02-01T06:56:26.157Z,108
2023-02-01T06:57:33.376Z,98
2023-02-01T06:58:40.281Z,103
2023-02-01T06:59:47.393Z,92
2023-02-01T07:00:54.557Z,103
2023-02-01T07:02:01.969Z,105
2023-02-01T07:03:10.937Z,96
2023-02-01T07:04:18.748Z,96
2023-02-01T07:05:26.052Z,95
2023-02-01T07:06:33.442Z,93
2023-02-01T07:07:40.380Z,86
2023-02-01T07:08:47.863Z,90
2023-02-01T07:09:55.016Z,99
2023-02-01T07:11:03.352Z,87
2023-02-01T07:12:11.022Z,87
2023-02-01T07:13:18.419Z,84
2023-02-01T07:14:25.617Z,86
2023-02-01T07:15:32.701Z,89
2023-02-01T07:16:40.052Z,84
2023-02-01T07:17:46.894Z,90
2023-02-01T07:18:54.966Z,85
2023-02-01T07:20:01.484Z,86
2023-02-01T07:21:08.788Z,77
2023-02-01T07:22:16.247Z,80
2023-02-01T07:23:24.592Z,74
2023-02-01T07:24:32.792Z,70
2023-02-01T07:25:40.881Z,84
2023-02-01T07:26:48.249Z,73
2023-02-01T07:27:55.531Z,73
2023-02-01T07:29:02.621Z,72
2023-02-01T07:30:09.876Z,75
2023-02-01T07:31:18.591Z,75
2023-02-01T07:32:25.664Z,77
2023-02-01T07:33:34.572Z,78
2023-02-01T07:34:42.204Z,75
2023-02-01T07:35:49.845Z,75
2023-02-01T07:36:56.953Z,76
2023-02-01T07:38:05.361Z,75
2023-02-01T07:39:12.688Z,73
2023-02-01T07:40:19.976Z,81
2023-02-01T07:41:27.120Z,84
2023-02-01T07:42:35.172Z,76
2023-02-01T07:43:44.215Z,82
2023-02-01T07:44:51.212Z,81
2023-02-01T07:45:58.637Z,78
2023-02-01T07:47:05.985Z,72
2023-02-01T07:48:12.892Z,71
2023-02-01T07:49:20.253Z,77
2023-02-01T07:50:28.715Z,79
2023-02-01T07:51:35.801Z,74
2023-02-01T07:52:43.830Z,72
2023-02-01T07:53:51.991Z,67
2023-02-01T07:54:59.290Z,68
2023-02-01T07:56:06.507Z,69
2023-02-01T07:57:18.982Z,63
2023-02-01T07:58:26.146Z,53
2023-02-01T07:59:34.380Z,57
2023-02-01T08:00:42.325Z,61
2023-02-01T08:01:54.616Z,68
2023-02-01T08:03:02.740Z,56
2023-02-01T08:04:09.893Z,57
2023-02-01T08:05:16.967Z,57
2023-02-01T08:06:24.307Z,60
2023-02-01T08:07:31.291Z,63
2023-02-01T08:08:39.219Z,50
2023-02-01T08:09:46.804Z,50
2023-02-01T08:10:54.044Z,48
2023-02-01T08:12:03.870Z,47
2023-02-01T08:13:11.339Z,55
2023-02-01T08:14:18.596Z,53
2023-02-01T08:15:26.510Z,51
2023-02-01T08:16:33.961Z,52
2023-02-01T08:17:41.045Z,49
2023-02-01T08:18:53.711Z,52
2023-02-01T08:20:01.077Z,50
2023-02-01T08:21:08.455Z,50
2023-02-01T08:22:16.425Z,58
2023-02-01T08:23:23.672Z,39
2023-02-01T08:24:31.653Z,47
2023-02-01T08:25:39.072Z,47
2023-02-01T08:26:47.265Z,46
2023-02-01T08:27:55.107Z,39
2023-02-01T08:29:02.295Z,37
2023-02-01T08:30:10.661Z,38
2023-02-01T08:31:18.345Z,33
2023-02-01T08:32:27.159Z,30
2023-02-01T08:33:34.365Z,31
2023-02-01T08:34:44.762Z,25
2023-02-01T08:35:51.691Z,34
2023-02-01T08:36:59.587Z,25
2023-02-01T08:38:06.914Z,25
2023-02-01T08:39:14.845Z,25
2023-02-01T08:40:22.411Z,25
2023-02-01T08:41:29.257Z,32
2023-02-01T08:42:37.319Z,36
2023-02-01T08:43:49.770Z,27
2023-02-01T08:44:57.104Z,33
2023-02-01T08:46:05.184Z,26
2023-02-01T08:47:12.514Z,35
2023-02-01T08:48:19.653Z,31
2023-02-01T08:49:27.547Z,28
2023-02-01T08:50:34.913Z,41
2023-02-01T08:51:42.915Z,33
2023-02-01T08:52:51.203Z,25
2023-02-01T08:53:58.502Z,31
2023-02-01T08:55:07.013Z,25
2023-02-01T08:56:14.110Z,28
2023-02-01T08:57:21.139Z,33
2023-02-01T08:58:28.483Z,37
2023-02-01T08:59:36.307Z,32
2023-02-01T09:00:43.693Z,25
2023-02-01T09:01:51.795Z,33
2023-02-01T09:02:58.891Z,29
2023-02-01T09:04:06.492Z,33
2023-02-01T09:05:13.680Z,29
2023-02-01T09:06:21.710Z,29
2023-02-01T09:07:33.780Z,27
2023-02-01T09:08:40.783Z,33
2023-02-01T09:09:47.739Z,37
2023-02-01T09:10:54.827Z,39
2023-02-01T09:12:05.915Z,43
2023-02-01T09:13:14.239Z,39
2023-02-01T09:14:21.563Z,43
2023-02-01T09:15:28.570Z,36
2023-02-01T09:16:36.464Z,34
2023-02-01T09:17:43.838Z,38
2023-02-01T09:18:56.421Z,43
2023-02-01T09:20:00.301Z,32
2023-02-01T09:21:07.701Z,36
2023-02-01T09:22:15.986Z,30
2023-02-01T09:23:23.067Z,40
2023-02-01T09:24:31.095Z,38
2023-02-01T09:25:38.319Z,42
2023-02-01T09:26:47.300Z,39
2023-02-01T09:27:54.475Z,41
2023-02-01T09:29:02.038Z,39
2023-02-01T09:30:10.263Z,35
2023-02-01T09:31:17.603Z,35
2023-02-01T09:32:24.879Z,39
2023-02-01T09:33:33.032Z,33
2023-02-01T09:34:40.391Z,35
2023-02-01T09:35:47.562Z,34
2023-02-01T09:36:55.535Z,40
2023-02-01T09:38:02.860Z,37
2023-02-01T09:39:10.700Z,35
2023-02-01T09:40:18.066Z,41
2023-02-01T09:41:25.182Z,40
2023-02-01T09:42:34.799Z,36
2023-02-01T09:43:47.009Z,31
2023-02-01T09:45:00.538Z,41
2023-02-01T09:46:18.087Z,36
2023-02-01T09:47:29.801Z,36
2023-02-01T09:48:36.847Z,41
2023-02-01T09:49:44.092Z,41
2023-02-01T09:51:00.168Z,37
2023-02-01T09:52:07.489Z,39
2023-02-01T09:53:17.118Z,33
2023-02-01T09:54:31.409Z,29
2023-02-01T09:55:47.353Z,27
2023-02-01T09:56:54.629Z,25
2023-02-01T09:58:07.918Z,25
2023-02-01T09:59:23.369Z,27
2023-02-01T10:00:37.512Z,25
2023-02-01T10:01:44.817Z,25
2023-02-01T10:02:52.547Z,25
2023-02-01T10:03:59.698Z,25
2023-02-01T10:05:07.559Z,34
2023-02-01T10:06:18.730Z,35
2023-02-01T10:07:34.384Z,29
2023-02-01T10:08:49.642Z,33
2023-02-01T10:10:07.348Z,28
2023-02-01T10:11:20.486Z,33
2023-02-01T10:12:36.559Z,30
2023-02-01T10:13:53.288Z,29
2023-02-01T10:15:08.671Z,33
2023-02-01T10:16:26.361Z,30
2023-02-01T10:17:39.204Z,31
2023-02-01T10:18:55.246Z,34
2023-02-01T10:20:10.940Z,37
2023-02-01T10:21:26.696Z,25
2023-02-01T10:23:00.257Z,27
2023-02-01T10:23:47.307Z,37
2023-02-01T10:25:02.744Z,40
2023-02-01T10:26:11.357Z,37
2023-02-01T10:27:24.260Z,34
2023-02-01T10:28:37.225Z,29
2023-02-01T10:29:45.267Z,34
2023-02-01T10:30:53.691Z,37
2023-02-01T10:32:02.216Z,33
2023-02-01T10:33:10.364Z,37
2023-02-01T10:34:30.460Z,33
2023-02-01T10:35:39.522Z,33
2023-02-01T10:36:50.739Z,40
2023-02-01T10:38:04.307Z,42
2023-02-01T10:39:11.740Z,48
2023-02-01T10:40:20.507Z,33
2023-02-01T10:41:29.800Z,35
2023-02-01T10:42:40.404Z,38
2023-02-01T10:43:48.429Z,42
2023-02-01T10:44:56.875Z,40
2023-02-01T10:46:04.619Z,42
2023-02-01T10:47:17.960Z,39
2023-02-01T10:48:26.789Z,44
2023-02-01T10:49:35.192Z,46
2023-02-01T10:50:49.264Z,44
2023-02-01T10:51:58.115Z,44
2023-02-01T10:53:10.500Z,44
2023-02-01T10:54:30.201Z,44
2023-02-01T10:55:41.264Z,51
2023-02-01T10:56:51.560Z,49
2023-02-01T10:58:00.498Z,54
2023-02-01T10:59:12.464Z,53
2023-02-01T11:00:23.982Z,41
2023-02-01T11:01:33.176Z,48
2023-02-01T11:02:46.021Z,47
2023-02-01T11:03:53.661Z,50
2023-02-01T11:05:04.463Z,40
2023-02-01T11:06:17.637Z,39
2023-02-01T11:07:31.955Z,31
2023-02-01T11:08:41.533Z,28
2023-02-01T11:09:54.849Z,25
2023-02-01T11:11:03.002Z,25
2023-02-01T11:12:10.648Z,28
2023-02-01T11:13:31.157Z,30
2023-02-01T11:14:39.211Z,39
2023-02-01T11:15:48.896Z,30
2023-02-01T11:16:58.348Z,29
2023-02-01T11:18:05.964Z,25
2023-02-01T11:19:13.042Z,38
2023-02-01T11:20:23.026Z,29
2023-02-01T11:21:41.246Z,33
2023-02-01T11:22:49.096Z,26
2023-02-01T11:24:01.207Z,40
2023-02-01T11:25:10.553Z,32
2023-02-01T11:26:19.614Z,30
2023-02-01T11:27:30.607Z,27
2023-02-01T11:28:39.583Z,25
2023-02-01T11:29:49.471Z,38
2023-02-01T11:30:58.341Z,34
2023-02-01T11:32:06.407Z,29
2023-02-01T11:33:16.035Z,30
2023-02-01T11:34:24.900Z,31
2023-02-01T11:35:40.690Z,32
2023-02-01T11:36:49.827Z,25
2023-02-01T11:37:58.002Z,29
2023-02-01T11:39:06.349Z,34
2023-02-01T11:40:14.011Z,32
2023-02-01T11:41:24.105Z,29
2023-02-01T11:42:32.802Z,38
2023-02-01T11:43:40.478Z,31
2023-02-01T11:44:58.465Z,25
2023-02-01T11:46:16.801Z,32
2023-02-01T11:47:24.016Z,32
2023-02-01T11:48:35.330Z,30
2023-02-01T11:49:44.609Z,35
2023-02-01T11:50:58.828Z,29
2023-02-01T11:52:16.569Z,27
2023-02-01T11:53:27.933Z,30
2023-02-01T11:54:45.453Z,28
2023-02-01T11:56:01.477Z,28
2023-02-01T11:57:16.490Z,27
2023-02-01T11:58:27.267Z,34
2023-02-01T11:59:40.949Z,32
2023-02-01T12:00:48.386Z,33
2023-02-01T12:02:03.729Z,26
2023-02-01T12:03:16.175Z,25
2023-02-01T12:04:29.677Z,33
2023-02-01T12:05:45.289Z,28
2023-02-01T12:06:59.455Z,39
2023-02-01T12:08:17.809Z,27
2023-02-01T12:09:28.628Z,29
2023-02-01T12:10:46.755Z,37
2023-02-01T12:12:04.230Z,37
2023-02-01T12:13:18.004Z,36
2023-02-01T12:14:27.402Z,28
2023-02-01T12:15:43.499Z,30
2023-02-01T12:16:55.054Z,28
2023-02-01T12:18:12.852Z,37
2023-02-01T12:19:24.695Z,31
2023-02-01T12:20:37.557Z,40
2023-02-01T12:21:48.434Z,38
2023-02-01T12:22:58.918Z,27
2023-02-01T12:24:13.085Z,31
2023-02-01T12:25:28.177Z,35
2023-02-01T12:26:37.282Z,40
2023-02-01T12:27:47.777Z,33
2023-02-01T12:29:06.288Z,42
2023-02-01T12:30:19.218Z,28
2023-02-01T12:31:32.932Z,38
2023-02-01T12:32:49.701Z,35
2023-02-01T12:34:12.479Z,38
2023-02-01T12:35:25.939Z,38
2023-02-01T12:36:37.008Z,36
2023-02-01T12:37:49.529Z,29
2023-02-01T12:39:02.629Z,31
2023-02-01T12:40:19.076Z,29
2023-02-01T12:41:34.612Z,43
2023-02-01T12:42:49.262Z,25
2023-02-01T12:44:05.442Z,31
2023-02-01T12:45:17.955Z,31
2023-02-01T12:46:30.913Z,32
2023-02-01T12:47:43.927Z,33
2023-02-01T12:48:56.372Z,44
2023-02-01T12:50:13.499Z,39
2023-02-01T12:51:26.211Z,29
2023-02-01T12:52:42.420Z,30
2023-02-01T12:53:50.683Z,32
2023-02-01T12:54:57.979Z,30
2023-02-01T12:56:10.537Z,29
2023-02-01T12:57:18.487Z,35
2023-02-01T12:58:28.578Z,40
2023-02-01T12:59:43.814Z,29
2023-02-01T13:00:54.805Z,32
2023-02-01T13:02:04.692Z,34
2023-02-01T13:03:17.243Z,27
2023-02-01T13:04:26.097Z,31
2023-02-01T13:05:33.883Z,31
2023-02-01T13:06:47.005Z,28
2023-02-01T13:07:57.535Z,26
2023-02-01T13:09:07.557Z,31
2023-02-01T13:10:15.001Z,36
2023-02-01T13:11:32.689Z,32
2023-02-01T13:12:42.802Z,26
2023-02-01T13:13:54.975Z,41
2023-02-01T13:15:11.602Z,38
2023-02-01T13:16:23.953Z,25
2023-02-01T13:17:42.358Z,40
2023-02-01T13:18:49.514Z,45
2023-02-01T13:19:57.565Z,43
2023-02-01T13:21:08.924Z,39
2023-02-01T13:22:21.848Z,42
2023-02-01T13:23:35.122Z,47
2023-02-01T13:24:42.554Z,56
2023-02-01T13:25:55.329Z,40
2023-02-01T13:27:02.903Z,49
2023-02-01T13:28:10.288Z,58
2023-02-01T13:29:18.389Z,58
2023-02-01T13:30:25.714Z,51
2023-02-01T13:31:33.668Z,50
2023-02-01T13:32:53.015Z,65
2023-02-01T13:34:02.951Z,61
2023-02-01T13:35:22.525Z,70
2023-02-01T13:36:35.161Z,78
2023-02-01T13:37:45.485Z,75
2023-02-01T13:38:52.645Z,98
2023-02-01T13:40:10.678Z,91
2023-02-01T13:41:24.075Z,97
2023-02-01T13:42:41.596Z,112
2023-02-01T13:43:55.151Z,108
2023-02-01T13:45:11.227Z,112
2023-02-01T13:46:22.130Z,117
2023-02-01T13:47:30.198Z,118
2023-02-01T13:48:40.405Z,112
2023-02-01T13:49:58.287Z,120
2023-02-01T13:51:05.471Z,123
2023-02-01T13:52:12.791Z,124
2023-02-01T13:53:30.257Z,132
2023-02-01T13:54:37.526Z,125
2023-02-01T13:55:45.118Z,129
2023-02-01T13:56:57.875Z,132
2023-02-01T13:58:04.886Z,129
2023-02-01T13:59:16.106Z,130
2023-02-01T14:00:34.630Z,130
2023-02-01T14:01:40.613Z,138
2023-02-01T14:02:48.051Z,136
2023-02-01T14:04:02.632Z,137
2023-02-01T14:05:09.885Z,136
2023-02-01T14:06:22.610Z,136
2023-02-01T14:07:32.902Z,134
2023-02-01T14:08:40.372Z,130
2023-02-01T14:09:49.006Z,126
2023-02-01T14:10:57.189Z,134
2023-02-01T14:12:05.834Z,139
2023-02-01T14:13:23.345Z,134
2023-02-01T14:14:33.625Z,131
2023-02-01T14:15:40.949Z,130
2023-02-01T14:16:49.466Z,133
2023-02-01T14:18:00.117Z,138
2023-02-01T14:19:07.443Z,131
2023-02-01T14:20:25.093Z,144
2023-02-01T14:21:39.583Z,136
2023-02-01T14:22:51.913Z,130
2023-02-01T14:24:04.254Z,129
2023-02-01T14:25:15.657Z,127
2023-02-01T14:26:24.127Z,137
2023-02-01T14:27:39.117Z,127
2023-02-01T14:28:48.037Z,125
2023-02-01T14:29:55.534Z,124
2023-02-01T14:31:02.930Z,125
2023-02-01T14:32:10.268Z,124
2023-02-01T14:33:22.458Z,127
2023-02-01T14:34:29.642Z,133
2023-02-01T14:35:43.010Z,122
2023-02-01T14:36:50.315Z,121
2023-02-01T14:38:03.249Z,121
2023-02-01T14:39:12.695Z,125
2023-02-01T14:40:30.361Z,126
2023-02-01T14:41:37.635Z,115
2023-02-01T14:42:44.800Z,121
2023-02-01T14:43:52.899Z,123
2023-02-01T14:45:08.121Z,121
2023-02-01T14:46:26.668Z,116
2023-02-01T14:47:46.043Z,109
2023-02-01T14:48:56.065Z,115
2023-02-01T14:50:04.069Z,122
2023-02-01T14:51:12.212Z,124
2023-02-01T14:52:19.714Z,123
2023-02-01T14:53:27.928Z,121
2023-02-01T14:54:35.106Z,121
2023-02-01T14:55:43.568Z,117
2023-02-01T14:56:59.287Z,124
2023-02-01T14:58:08.639Z,118
2023-02-01T14:59:21.768Z,120
2023-02-01T15:00:29.012Z,116
2023-02-01T15:01:36.310Z,111
2023-02-01T15:02:43.410Z,124
2023-02-01T15:03:51.374Z,122
2023-02-01T15:05:04.005Z,116
2023-02-01T15:06:16.290Z,126
2023-02-01T15:07:33.806Z,122
2023-02-01T15:08:41.763Z,110
2023-02-01T15:09:51.197Z,120
2023-02-01T15:10:59.398Z,126
2023-02-01T15:12:08.692Z,119
2023-02-01T15:13:15.826Z,122
2023-02-01T15:14:26.472Z,114
2023-02-01T15:15:37.689Z,122
2023-02-01T15:16:45.240Z,118
2023-02-01T15:17:53.541Z,116
2023-02-01T15:19:04.308Z,127
2023-02-01T15:20:11.325Z,123
2023-02-01T15:21:28.121Z,116
2023-02-01T15:22:26.695Z,111
2023-02-01T15:23:33.910Z,114
2023-02-01T15:24:41.785Z,112
2023-02-01T15:25:53.638Z,120
2023-02-01T15:26:59.801Z,116
2023-02-01T15:28:08.147Z,116
2023-02-01T15:29:16.463Z,117
2023-02-01T15:30:23.775Z,111
2023-02-01T15:31:31.286Z,107
2023-02-01T15:32:38.295Z,103
2023-02-01T15:33:46.446Z,108
2023-02-01T15:35:01.667Z,104
2023-02-01T15:36:09.698Z,102
2023-02-01T15:37:22.536Z,111
2023-02-01T15:38:31.375Z,110
2023-02-01T15:39:39.725Z,107
2023-02-01T15:40:57.921Z,97
2023-02-01T15:42:08.905Z,103
2023-02-01T15:43:21.091Z,108
2023-02-01T15:44:28.202Z,108
2023-02-01T15:45:38.684Z,104
2023-02-01T15:46:45.887Z,109
2023-02-01T15:47:54.046Z,107
2023-02-01T15:49:01.284Z,102
2023-02-01T15:50:10.013Z,108
2023-02-01T15:51:17.863Z,103
2023-02-01T15:52:28.766Z,101
2023-02-01T15:53:41.893Z,96
2023-02-01T15:54:51.689Z,93
2023-02-01T15:55:58.885Z,86
2023-02-01T15:57:06.055Z,80
2023-02-01T15:58:13.161Z,85
2023-02-01T15:59:22.032Z,81
2023-02-01T16:00:29.213Z,75
2023-02-01T16:01:37.558Z,70
2023-02-01T16:02:46.265Z,73
2023-02-01T16:03:56.938Z,62
2023-02-01T16:05:07.968Z,59
2023-02-01T16:06:26.490Z,68
2023-02-01T16:07:33.411Z,61
2023-02-01T16:08:40.477Z,55
2023-02-01T16:09:56.433Z,47
2023-02-01T16:11:05.996Z,51
2023-02-01T16:12:14.049Z,45
2023-02-01T16:13:31.681Z,40
2023-02-01T16:14:42.669Z,35
2023-02-01T16:15:50.228Z,37
2023-02-01T16:16:57.164Z,32
2023-02-01T16:18:05.623Z,39
2023-02-01T16:19:16.001Z,32
2023-02-01T16:20:24.147Z,30
2023-02-01T16:21:32.329Z,27
2023-02-01T16:22:39.695Z,28
2023-02-01T16:23:46.726Z,26
2023-02-01T16:24:56.413Z,26
2023-02-01T16:26:03.672Z,27
2023-02-01T16:27:12.128Z,34
2023-02-01T16:28:20.103Z,32
2023-02-01T16:29:28.411Z,31